createdAt,value
2018-06-29T00:00:03.582Z,94439.67
2018-06-29T00:02:32.354Z,94434.84
2018-06-29T00:05:01.025Z,94429.98
2018-06-29T00:07:29.822Z,94427.63
2018-06-29T00:09:58.555Z,94433.84
2018-06-29T00:12:27.234Z,94431.31
2018-06-29T00:14:56.082Z,94428.59
2018-06-29T00:17:24.779Z,94420.66
2018-06-29T00:19:53.434Z,94413.86
2018-06-29T00:22:22.086Z,94423.55
2018-06-29T00:24:50.741Z,94426.27
2018-06-29T00:27:19.380Z,94428.98
2018-06-29T00:29:48.100Z,94432.67
2018-06-29T00:32:16.759Z,94390.27
2018-06-29T00:34:45.462Z,94427.84
2018-06-29T00:37:14.066Z,94423.77
2018-06-29T00:39:42.696Z,94419.48
2018-06-29T00:42:11.342Z,94395.33
2018-06-29T00:44:39.971Z,94420.63
2018-06-29T00:47:08.612Z,94419.27
2018-06-29T00:49:37.322Z,94414.05
2018-06-29T00:52:06.766Z,94415.22
2018-06-29T00:54:35.393Z,94400.85
2018-06-29T00:57:04.082Z,94406.50
2018-06-29T00:59:32.761Z,94401.25
2018-06-29T01:02:02.090Z,94402.39
2018-06-29T01:04:30.731Z,94407.46
2018-06-29T01:06:59.420Z,94407.25
2018-06-29T01:09:28.097Z,94410.75
2018-06-29T01:11:56.740Z,94400.86
2018-06-29T01:14:25.399Z,94402.39
2018-06-29T01:16:54.054Z,94398.89
2018-06-29T01:19:23.105Z,94397.53
2018-06-29T01:21:51.815Z,94400.45
2018-06-29T01:24:20.591Z,94403.94
2018-06-29T01:26:49.309Z,94407.46
2018-06-29T01:29:17.914Z,94401.42
2018-06-29T01:31:46.555Z,94404.75
2018-06-29T01:34:15.255Z,94405.11
2018-06-29T01:36:43.988Z,94401.81
2018-06-29T01:39:12.667Z,94404.14
2018-06-29T01:41:41.347Z,94394.24
2018-06-29T01:44:10.261Z,94397.53
2018-06-29T01:46:38.890Z,94392.52
2018-06-29T01:49:07.575Z,94368.95
2018-06-29T01:51:36.244Z,94375.98
2018-06-29T01:54:04.956Z,94392.49
2018-06-29T01:56:33.695Z,94398.50
2018-06-29T01:59:02.503Z,94394.42
2018-06-29T02:01:31.144Z,94383.02
2018-06-29T02:03:59.787Z,94385.52
2018-06-29T02:06:28.406Z,94379.12
2018-06-29T02:08:57.122Z,94384.73
2018-06-29T02:11:26.155Z,94383.56
2018-06-29T02:13:54.787Z,94382.02
2018-06-29T02:16:23.394Z,94382.80
2018-06-29T02:18:52.077Z,94377.16
2018-06-29T02:21:20.711Z,94316.89
2018-06-29T02:23:49.777Z,94377.58
2018-06-29T02:26:18.394Z,94379.91
2018-06-29T02:28:47.005Z,94377.58
2018-06-29T02:31:15.938Z,94378.33
2018-06-29T02:33:44.931Z,94383.98
2018-06-29T02:36:13.586Z,94384.94
2018-06-29T02:38:42.239Z,94388.05
2018-06-29T02:41:10.883Z,94391.16
2018-06-29T02:43:39.556Z,94398.53
2018-06-29T02:46:08.228Z,94392.67
2018-06-29T02:48:36.889Z,94395.75
2018-06-29T02:51:05.588Z,94397.69
2018-06-29T02:53:34.228Z,94399.62
2018-06-29T02:56:02.942Z,94396.12
2018-06-29T02:58:31.634Z,94398.84
2018-06-29T03:01:00.378Z,94400.38
2018-06-29T03:03:29.069Z,94387.19
2018-06-29T03:05:57.902Z,94389.51
2018-06-29T03:08:26.532Z,94390.87
2018-06-29T03:10:55.722Z,94395.12
2018-06-29T03:13:24.434Z,94389.12
2018-06-29T03:15:53.109Z,94392.02
2018-06-29T03:18:22.154Z,94397.27
2018-06-29T03:20:50.802Z,94393.95
2018-06-29T03:23:19.524Z,94395.52
2018-06-29T03:25:48.174Z,94390.27
2018-06-29T03:28:16.897Z,94391.05
2018-06-29T03:30:45.962Z,94383.86
2018-06-29T03:33:14.706Z,94384.83
2018-06-29T03:35:43.397Z,94384.08
2018-06-29T03:38:12.089Z,94388.94
2018-06-29T03:40:40.795Z,94387.58
2018-06-29T03:43:09.431Z,94392.80
2018-06-29T03:45:38.783Z,94393.01
2018-06-29T03:48:07.570Z,94397.27
2018-06-29T03:50:36.197Z,94395.91
2018-06-29T03:53:04.834Z,94393.19
2018-06-29T03:55:34.440Z,94397.66
2018-06-29T03:58:03.171Z,94357.16
2018-06-29T04:00:31.807Z,94400.94
2018-06-29T04:03:00.440Z,94405.80
2018-06-29T04:05:29.151Z,94399.98
2018-06-29T04:07:57.906Z,94403.09
2018-06-29T04:10:26.802Z,94401.52
2018-06-29T04:12:55.591Z,94394.37
2018-06-29T04:15:24.210Z,94403.45
2018-06-29T04:17:53.138Z,94399.59
2018-06-29T04:20:22.196Z,94397.44
2018-06-29T04:22:50.887Z,94390.47
2018-06-29T04:25:19.619Z,94387.00
2018-06-29T04:27:48.229Z,94394.78
2018-06-29T04:30:16.909Z,94390.35
2018-06-29T04:32:45.539Z,94395.03
2018-06-29T04:35:14.158Z,94388.84
2018-06-29T04:37:43.227Z,94392.70
2018-06-29T04:40:11.907Z,94393.12
2018-06-29T04:42:40.518Z,94386.50
2018-06-29T04:45:09.240Z,94389.25
2018-06-29T04:47:37.869Z,94397.98
2018-06-29T04:50:06.627Z,94395.45
2018-06-29T04:52:35.219Z,94388.44
2018-06-29T04:55:03.945Z,94396.41
2018-06-29T04:57:32.577Z,94394.81
2018-06-29T05:00:01.269Z,94396.20
2018-06-29T05:02:29.915Z,94394.66
2018-06-29T05:04:58.565Z,94390.02
2018-06-29T05:07:27.287Z,94395.81
2018-06-29T05:09:55.895Z,94374.81
2018-06-29T05:12:24.542Z,94395.42
2018-06-29T05:14:53.174Z,94398.91
2018-06-29T05:17:21.853Z,94399.70
2018-06-29T05:19:50.437Z,94395.99
2018-06-29T05:22:19.060Z,94407.04
2018-06-29T05:24:47.718Z,94403.17
2018-06-29T05:27:16.302Z,94397.95
2018-06-29T05:29:44.990Z,94395.42
2018-06-29T05:32:13.746Z,94399.13
2018-06-29T05:34:42.466Z,94406.31
2018-06-29T05:37:11.173Z,94404.17
2018-06-29T05:39:39.929Z,94407.06
2018-06-29T05:42:08.923Z,94408.42
2018-06-29T05:44:37.596Z,94410.96
2018-06-29T05:47:06.656Z,94408.45
2018-06-29T05:49:35.376Z,94416.42
2018-06-29T05:52:04.245Z,94421.09
2018-06-29T05:54:32.939Z,94410.85
2018-06-29T05:57:01.663Z,94407.58
2018-06-29T05:59:30.283Z,94412.83
2018-06-29T06:01:59.089Z,94414.77
2018-06-29T06:04:27.967Z,94424.28
2018-06-29T06:06:56.659Z,94421.56
2018-06-29T06:09:25.307Z,94417.88
2018-06-29T06:11:53.940Z,94422.56
2018-06-29T06:14:22.568Z,94418.66
2018-06-29T06:16:51.322Z,94417.12
2018-06-29T06:19:31.006Z,94423.13
2018-06-29T06:21:59.989Z,94423.55
2018-06-29T06:24:28.556Z,94428.19
2018-06-29T06:26:57.359Z,94423.14
2018-06-29T06:29:26.067Z,94429.77
2018-06-29T06:31:54.958Z,94427.83
2018-06-29T06:34:23.613Z,94432.27
2018-06-29T06:36:52.312Z,94427.62
2018-06-29T06:39:21.532Z,94430.36
2018-06-29T06:41:50.126Z,94435.19
2018-06-29T06:44:19.043Z,94434.66
2018-06-29T06:46:47.693Z,94429.66
2018-06-29T06:49:16.327Z,94429.45
2018-06-29T06:51:45.047Z,94433.35
2018-06-29T06:54:13.693Z,94437.63
2018-06-29T06:56:42.296Z,94428.09
2018-06-29T06:59:10.983Z,94431.77
2018-06-29T07:01:39.926Z,94427.11
2018-06-29T07:04:08.599Z,94432.52
2018-06-29T07:06:37.267Z,94435.85
2018-06-29T07:09:08.862Z,94433.70
2018-06-29T07:11:37.609Z,94430.20
2018-06-29T07:14:06.334Z,94429.23
2018-06-29T07:16:34.985Z,94436.63
2018-06-29T07:19:03.675Z,94430.98
2018-06-29T07:21:32.330Z,94425.95
2018-06-29T07:24:00.983Z,94430.23
2018-06-29T07:26:30.683Z,94432.94
2018-06-29T07:29:02.141Z,94429.64
2018-06-29T07:31:30.832Z,94432.77
2018-06-29T07:33:59.600Z,94430.63
2018-06-29T07:36:28.340Z,94428.30
2018-06-29T07:38:56.988Z,94426.55
2018-06-29T07:41:25.996Z,94420.33
2018-06-29T07:43:54.930Z,94422.25
2018-06-29T07:46:23.672Z,94425.36
2018-06-29T07:48:52.278Z,94423.38
2018-06-29T07:51:20.955Z,94422.77
2018-06-29T07:53:49.579Z,94423.87
2018-06-29T07:56:18.294Z,94424.36
2018-06-29T07:58:48.712Z,94417.70
2018-06-29T08:01:17.482Z,94417.38
2018-06-29T08:03:46.227Z,94424.86
2018-06-29T08:06:14.987Z,94426.59
2018-06-29T08:08:43.718Z,94421.96
2018-06-29T08:11:12.428Z,94429.98
2018-06-29T08:13:41.228Z,94439.73
2018-06-29T08:16:10.032Z,94434.52
2018-06-29T08:18:38.785Z,94435.30
2018-06-29T08:21:07.686Z,94440.00
2018-06-29T08:23:36.392Z,94440.00
2018-06-29T08:26:16.273Z,94437.84
2018-06-29T08:28:44.890Z,94440.34
2018-06-29T08:31:13.911Z,94437.37
2018-06-29T08:33:42.530Z,94437.71
2018-06-29T08:36:11.151Z,94438.91
2018-06-29T08:38:39.908Z,94434.89
2018-06-29T08:41:08.721Z,94429.61
2018-06-29T08:43:37.467Z,94432.70
2018-06-29T08:46:07.003Z,94432.30
2018-06-29T08:48:35.830Z,94435.52
2018-06-29T08:51:04.628Z,94433.87
2018-06-29T08:53:33.533Z,94434.86
2018-06-29T08:56:02.246Z,94435.14
2018-06-29T08:58:31.055Z,94434.55
2018-06-29T09:01:00.446Z,94430.59
2018-06-29T09:03:29.166Z,94432.52
2018-06-29T09:05:57.742Z,94434.31
2018-06-29T09:08:26.724Z,94439.56
2018-06-29T09:10:55.549Z,94435.31
2018-06-29T09:13:24.227Z,94442.17
2018-06-29T09:15:53.104Z,94443.95
2018-06-29T09:18:21.827Z,94448.90
2018-06-29T09:20:50.513Z,94447.95
2018-06-29T09:23:19.326Z,94440.38
2018-06-29T09:25:47.985Z,94438.85
2018-06-29T09:28:16.765Z,94451.84
2018-06-29T09:30:46.069Z,94443.17
2018-06-29T09:33:15.125Z,94443.95
2018-06-29T09:35:43.980Z,94438.91
2018-06-29T09:38:12.684Z,94439.08
2018-06-29T09:40:41.424Z,94441.17
2018-06-29T09:43:10.405Z,94443.95
2018-06-29T09:45:39.169Z,94441.55
2018-06-29T09:48:08.423Z,94443.31
2018-06-29T09:50:36.940Z,94446.99
2018-06-29T09:53:05.744Z,94453.36
2018-06-29T09:55:34.808Z,94449.84
2018-06-29T09:58:03.624Z,94457.25
2018-06-29T10:00:33.086Z,94451.03
2018-06-29T10:03:02.026Z,94452.78
2018-06-29T10:05:30.756Z,94444.97
2018-06-29T10:07:59.781Z,94445.16
2018-06-29T10:10:28.461Z,94450.05
2018-06-29T10:12:57.172Z,94450.38
2018-06-29T10:15:26.065Z,94454.09
2018-06-29T10:17:55.133Z,94453.94
2018-06-29T10:20:23.789Z,94456.83
2018-06-29T10:22:52.563Z,94456.38
2018-06-29T10:25:21.351Z,94457.52
2018-06-29T10:27:49.963Z,94453.47
2018-06-29T10:30:18.639Z,94447.14
2018-06-29T10:32:47.317Z,94457.84
2018-06-29T10:35:16.018Z,94459.52
2018-06-29T10:37:44.715Z,94447.16
2018-06-29T10:40:13.598Z,94454.28
2018-06-29T10:42:42.246Z,94448.05
2018-06-29T10:45:11.083Z,94460.72
2018-06-29T10:47:40.537Z,94457.17
2018-06-29T10:50:09.246Z,94462.15
2018-06-29T10:52:38.127Z,94470.25
2018-06-29T10:55:06.753Z,94467.52
2018-06-29T10:57:35.427Z,94470.04
2018-06-29T11:00:04.448Z,94453.42
2018-06-29T11:02:33.159Z,94457.11
2018-06-29T11:05:01.851Z,94456.48
2018-06-29T11:07:30.517Z,94458.76
2018-06-29T11:09:59.253Z,94456.80
2018-06-29T11:12:27.947Z,94465.25
2018-06-29T11:14:56.651Z,94463.89
2018-06-29T11:17:25.435Z,94461.98
2018-06-29T11:19:54.481Z,94457.77
2018-06-29T11:22:23.176Z,94458.75
2018-06-29T11:24:51.830Z,94464.96
2018-06-29T11:27:20.606Z,94462.84
2018-06-29T11:29:49.197Z,94456.98
2018-06-29T11:32:18.106Z,94458.00
2018-06-29T11:34:46.861Z,94455.55
2018-06-29T11:37:15.517Z,94453.81
2018-06-29T11:39:44.270Z,94453.60
2018-06-29T11:42:13.177Z,94449.94
2018-06-29T11:44:42.316Z,94451.70
2018-06-29T11:47:10.947Z,94448.23
2018-06-29T11:49:39.780Z,94449.02
2018-06-29T11:52:08.793Z,94376.36
2018-06-29T11:54:37.511Z,94448.80
2018-06-29T11:57:06.320Z,94447.62
2018-06-29T11:59:34.952Z,94451.88
2018-06-29T12:02:03.921Z,94456.16
2018-06-29T12:04:32.735Z,94453.80
2018-06-29T12:07:01.415Z,94457.69
2018-06-29T12:09:30.120Z,94453.83
2018-06-29T12:11:58.747Z,94460.49
2018-06-29T12:14:27.330Z,94462.45
2018-06-29T12:16:56.861Z,94463.45
2018-06-29T12:19:25.488Z,94462.13
2018-06-29T12:21:54.187Z,94462.91
2018-06-29T12:24:22.874Z,94460.37
2018-06-29T12:26:51.656Z,94463.08
2018-06-29T12:29:20.700Z,94462.09
2018-06-29T12:31:49.512Z,94469.06
2018-06-29T12:34:18.273Z,94459.11
2018-06-29T12:36:48.094Z,94460.06
2018-06-29T12:39:16.764Z,94458.45
2018-06-29T12:41:45.416Z,94465.88
2018-06-29T12:44:14.457Z,94459.05
2018-06-29T12:46:43.098Z,94459.05
2018-06-29T12:49:11.739Z,94464.11
2018-06-29T12:51:40.691Z,94457.28
2018-06-29T12:54:09.273Z,94456.33
2018-06-29T12:56:37.996Z,94453.37
2018-06-29T12:59:06.614Z,94454.49
2018-06-29T13:01:35.463Z,94450.20
2018-06-29T13:04:04.187Z,94445.19
2018-06-29T13:06:33.422Z,94447.19
2018-06-29T13:09:02.775Z,94443.86
2018-06-29T13:11:31.468Z,94438.60
2018-06-29T13:14:00.066Z,94436.66
2018-06-29T13:16:28.722Z,94438.20
2018-06-29T13:18:57.361Z,94433.08
2018-06-29T13:21:25.947Z,94437.55
2018-06-29T13:23:54.757Z,94434.95
2018-06-29T13:26:23.938Z,94441.97
2018-06-29T13:28:52.594Z,94440.11
2018-06-29T13:31:21.207Z,94431.88
2018-06-29T13:33:49.910Z,94434.41
2018-06-29T13:36:18.702Z,94436.13
2018-06-29T13:38:47.209Z,94432.36
2018-06-29T13:41:15.867Z,94435.13
2018-06-29T13:43:44.602Z,94425.38
2018-06-29T13:46:13.284Z,94430.63
2018-06-29T13:48:42.252Z,94428.37
2018-06-29T13:51:10.931Z,94425.00
2018-06-29T13:53:39.546Z,94412.82
2018-06-29T13:56:08.183Z,94422.70
2018-06-29T13:58:37.179Z,94420.37
2018-06-29T14:01:06.147Z,94418.95
2018-06-29T14:03:34.826Z,94415.64
2018-06-29T14:06:03.455Z,94417.42
2018-06-29T14:08:32.354Z,94414.13
2018-06-29T14:11:00.990Z,94419.28
2018-06-29T14:13:29.616Z,94417.28
2018-06-29T14:15:58.407Z,94412.11
2018-06-29T14:18:27.011Z,94401.98
2018-06-29T14:20:55.721Z,94407.94
2018-06-29T14:23:24.316Z,94405.41
2018-06-29T14:25:53.235Z,94406.05
2018-06-29T14:28:22.215Z,94404.72
2018-06-29T14:30:50.974Z,94407.30
2018-06-29T14:33:19.778Z,94404.22
2018-06-29T14:35:48.484Z,94406.00
2018-06-29T14:38:17.271Z,94402.86
2018-06-29T14:40:46.162Z,94390.78
2018-06-29T14:43:14.762Z,94394.50
2018-06-29T14:45:43.738Z,94395.66
2018-06-29T14:48:12.419Z,94395.97
2018-06-29T14:50:41.093Z,94394.61
2018-06-29T14:53:09.978Z,94387.84
2018-06-29T14:55:38.787Z,94385.54
2018-06-29T14:58:07.542Z,94384.91
2018-06-29T15:00:36.164Z,94386.80
2018-06-29T15:03:04.912Z,94390.09
2018-06-29T15:05:34.147Z,94377.03
2018-06-29T15:08:02.903Z,94385.01
2018-06-29T15:10:31.654Z,94389.05
2018-06-29T15:13:00.495Z,94384.02
2018-06-29T15:15:29.409Z,94385.95
2018-06-29T15:17:58.076Z,94388.94
2018-06-29T15:20:26.771Z,94381.13
2018-06-29T15:22:55.694Z,94381.58
2018-06-29T15:25:24.427Z,94380.95
2018-06-29T15:27:53.256Z,94378.19
2018-06-29T15:30:22.155Z,94386.95
2018-06-29T15:32:50.941Z,94376.44
2018-06-29T15:35:19.648Z,94382.65
2018-06-29T15:37:48.339Z,94375.07
2018-06-29T15:40:17.878Z,94368.83
2018-06-29T15:42:46.588Z,94370.36
2018-06-29T15:45:15.524Z,94373.55
2018-06-29T15:47:44.235Z,94368.27
2018-06-29T15:50:12.935Z,94374.14
2018-06-29T15:52:41.657Z,94377.92
2018-06-29T15:55:10.349Z,94375.81
2018-06-29T15:57:39.191Z,94379.28
2018-06-29T16:00:09.499Z,94380.66
2018-06-29T16:02:38.153Z,94375.97
2018-06-29T16:05:07.234Z,94382.59
2018-06-29T16:07:35.894Z,94381.02
2018-06-29T16:10:04.930Z,94384.17
2018-06-29T16:12:33.597Z,94385.54
2018-06-29T16:15:02.230Z,94394.39
2018-06-29T16:17:30.894Z,94390.76
2018-06-29T16:19:59.586Z,94341.89
2018-06-29T16:22:28.370Z,94399.64
2018-06-29T16:24:57.393Z,94295.27
2018-06-29T16:27:26.026Z,94401.36
2018-06-29T16:29:55.892Z,94413.87
2018-06-29T16:32:26.998Z,94406.50
2018-06-29T16:34:55.903Z,94403.62
2018-06-29T16:37:24.833Z,94401.64
2018-06-29T16:39:53.520Z,94396.01
2018-06-29T16:42:22.464Z,94397.77
2018-06-29T16:44:51.123Z,94392.33
2018-06-29T16:47:19.952Z,94396.41
2018-06-29T16:49:48.631Z,94395.62
2018-06-29T16:52:17.272Z,94386.47
2018-06-29T16:54:46.061Z,94393.32
2018-06-29T16:57:14.736Z,94395.45
2018-06-29T16:59:43.586Z,94389.81
2018-06-29T17:02:12.191Z,94389.61
2018-06-29T17:04:40.791Z,94384.72
2018-06-29T17:07:09.457Z,94387.84
2018-06-29T17:09:38.091Z,94387.06
2018-06-29T17:12:07.273Z,94388.38
2018-06-29T17:14:36.138Z,94386.64
2018-06-29T17:17:04.975Z,94395.01
2018-06-29T17:19:33.683Z,94382.95
2018-06-29T17:22:02.389Z,94384.31
2018-06-29T17:24:31.033Z,94381.37
2018-06-29T17:26:59.718Z,94384.12
2018-06-29T17:29:28.696Z,94384.11
2018-06-29T17:31:57.402Z,94380.61
2018-06-29T17:34:26.099Z,94387.61
2018-06-29T17:36:55.053Z,94389.95
2018-06-29T17:39:23.695Z,94390.56
2018-06-29T17:41:52.287Z,94397.16
2018-06-29T17:44:20.978Z,94380.28
2018-06-29T17:46:49.600Z,94381.83
2018-06-29T17:49:18.510Z,94391.94
2018-06-29T17:51:47.459Z,94390.98
2018-06-29T17:54:16.108Z,94396.99
2018-06-29T17:56:45.026Z,94390.19
2018-06-29T17:59:13.644Z,94394.26
2018-06-29T18:01:42.351Z,94397.00
2018-06-29T18:04:11.006Z,94402.62
2018-06-29T18:06:39.878Z,94407.68
2018-06-29T18:09:10.050Z,94402.83
2018-06-29T18:11:38.716Z,94403.80
2018-06-29T18:14:07.578Z,94395.05
2018-06-29T18:16:36.301Z,94399.92
2018-06-29T18:19:05.411Z,94401.06
2018-06-29T18:21:34.200Z,94401.28
2018-06-29T18:24:03.321Z,94404.96
2018-06-29T18:26:32.049Z,94409.23
2018-06-29T18:29:01.032Z,94400.67
2018-06-29T18:31:30.030Z,94402.03
2018-06-29T18:33:58.642Z,94400.11
2018-06-29T18:36:27.257Z,94402.45
2018-06-29T18:38:56.969Z,94406.53
2018-06-29T18:41:25.608Z,94402.84
2018-06-29T18:43:54.565Z,94407.69
2018-06-29T18:46:23.254Z,94411.19
2018-06-29T18:48:52.237Z,94409.81
2018-06-29T18:51:20.894Z,94412.16
2018-06-29T18:53:49.516Z,94410.80
2018-06-29T18:56:18.173Z,94413.72
2018-06-29T18:58:46.962Z,94410.22
2018-06-29T19:01:16.031Z,94413.72
2018-06-29T19:03:44.602Z,94407.89
2018-06-29T19:06:13.467Z,94410.59
2018-06-29T19:08:42.139Z,94404.00
2018-06-29T19:11:10.793Z,94400.67
2018-06-29T19:13:39.707Z,94406.53
2018-06-29T19:16:08.613Z,94402.45
2018-06-29T19:18:37.342Z,94393.50
2018-06-29T19:21:06.282Z,94397.19
2018-06-29T19:23:34.955Z,94397.95
2018-06-29T19:26:03.601Z,94393.70
2018-06-29T19:28:33.638Z,94393.70
2018-06-29T19:31:02.428Z,94393.88
2018-06-29T19:33:31.099Z,94395.23
2018-06-29T19:35:59.766Z,94394.29
2018-06-29T19:38:28.581Z,94394.47
2018-06-29T19:40:57.269Z,94096.53
2018-06-29T19:43:25.992Z,94408.84
2018-06-29T19:45:54.848Z,94407.30
2018-06-29T19:48:23.517Z,94402.64
2018-06-29T19:50:52.786Z,94401.08
2018-06-29T19:53:21.425Z,94404.97
2018-06-29T19:55:50.598Z,94404.20
2018-06-29T19:58:19.323Z,94401.86
2018-06-29T20:00:47.957Z,94401.08
2018-06-29T20:03:16.947Z,94403.60
2018-06-29T20:05:45.544Z,94398.37
2018-06-29T20:08:14.436Z,94402.05
2018-06-29T20:10:43.316Z,94403.39
2018-06-29T20:13:11.966Z,94406.53
2018-06-29T20:15:40.738Z,94402.64
2018-06-29T20:18:09.865Z,94411.77
2018-06-29T20:20:38.595Z,94419.53
2018-06-29T20:23:07.572Z,94417.80
2018-06-29T20:25:36.919Z,94420.31
2018-06-29T20:28:05.805Z,94426.73
2018-06-29T20:30:34.459Z,94418.97
2018-06-29T20:33:03.277Z,94423.62
2018-06-29T20:35:31.845Z,94425.77
2018-06-29T20:38:00.554Z,94429.08
2018-06-29T20:40:29.273Z,94424.61
2018-06-29T20:42:58.029Z,94444.03
2018-06-29T20:45:27.344Z,94430.81
2018-06-29T20:47:56.014Z,94430.03
2018-06-29T20:50:24.983Z,94426.35
2018-06-29T20:52:53.859Z,94427.72
2018-06-29T20:55:22.803Z,94426.75
2018-06-29T20:57:51.499Z,94431.97
2018-06-29T21:00:20.148Z,94422.25
2018-06-29T21:02:48.828Z,94424.61
2018-06-29T21:05:17.487Z,94419.34
2018-06-29T21:07:46.138Z,94415.47
2018-06-29T21:10:14.765Z,94420.91
2018-06-29T21:12:43.429Z,94421.09
2018-06-29T21:15:12.066Z,94417.21
2018-06-29T21:17:40.781Z,94421.09
2018-06-29T21:20:09.467Z,94421.68
2018-06-29T21:22:38.162Z,94426.95
2018-06-29T21:25:07.184Z,94426.55
2018-06-29T21:27:35.911Z,94421.10
2018-06-29T21:30:05.254Z,94417.59
2018-06-29T21:32:33.891Z,94421.30
2018-06-29T21:35:02.498Z,94324.91
2018-06-29T21:37:31.369Z,94421.30
2018-06-29T21:40:00.025Z,94421.68
2018-06-29T21:42:28.672Z,94417.42
2018-06-29T21:44:58.463Z,94423.25
2018-06-29T21:47:27.342Z,94424.78
2018-06-29T21:49:55.982Z,94414.10
2018-06-29T21:52:24.886Z,94417.22
2018-06-29T21:54:53.780Z,94413.70
2018-06-29T21:57:22.421Z,94406.34
2018-06-29T21:59:51.052Z,94412.53
2018-06-29T22:02:20.231Z,94414.48
2018-06-29T22:04:49.473Z,94409.25
2018-06-29T22:07:18.223Z,94408.45
2018-06-29T22:09:47.101Z,94411.37
2018-06-29T22:12:15.776Z,94409.83
2018-06-29T22:14:44.435Z,94411.38
2018-06-29T22:17:13.319Z,94407.89
2018-06-29T22:19:42.091Z,94407.50
2018-06-29T22:22:11.053Z,94412.73
2018-06-29T22:24:40.000Z,94410.80
2018-06-29T22:27:08.950Z,94404.19
2018-06-29T22:29:38.000Z,94405.55
2018-06-29T22:32:06.792Z,94402.44
2018-06-29T22:34:35.422Z,94400.90
2018-06-29T22:37:04.357Z,94405.55
2018-06-29T22:39:33.009Z,94405.92
2018-06-29T22:42:02.061Z,94400.29
2018-06-29T22:44:31.474Z,94400.67
2018-06-29T22:47:00.233Z,94397.56
2018-06-29T22:49:29.167Z,94404.77
2018-06-29T22:51:57.842Z,94403.59
2018-06-29T22:54:27.845Z,94402.06
2018-06-29T22:56:56.775Z,94407.68
2018-06-29T22:59:25.630Z,94404.38
2018-06-29T23:01:54.470Z,94410.41
2018-06-29T23:04:24.363Z,94415.47
2018-06-29T23:06:53.032Z,94411.78
2018-06-29T23:09:21.618Z,94403.42
2018-06-29T23:11:50.267Z,94399.90
2018-06-29T23:14:19.114Z,94400.48
2018-06-29T23:16:47.782Z,94391.92
2018-06-29T23:19:16.702Z,94396.20
2018-06-29T23:21:45.408Z,94392.91
2018-06-29T23:24:14.519Z,94392.53
2018-06-29T23:26:43.178Z,94388.45
2018-06-29T23:29:12.101Z,94384.75
2018-06-29T23:31:40.926Z,94377.56
2018-06-29T23:34:10.067Z,94389.20
2018-06-29T23:36:39.672Z,94379.67
2018-06-29T23:39:09.426Z,94315.97
2018-06-29T23:41:38.155Z,94367.25
2018-06-29T23:44:07.537Z,94371.52
2018-06-29T23:46:36.267Z,94373.48
2018-06-29T23:49:05.009Z,94367.42
2018-06-29T23:51:33.675Z,94370.53
2018-06-29T23:54:02.451Z,94370.54
2018-06-29T23:56:31.099Z,94373.45
2018-06-29T23:58:59.976Z,94368.00
